Time;durP1;ratioP1;P1;durP2;ratioP2;P2;SDS_P1;SDS_P2;PMS_P1;PMS_P2;Temp;Humidity;BMP_temperature;BMP_pressure;BME280_temperature;BME280_humidity;BME280_pressure;Samples;Min_cycle;Max_cycle;Signal;HPM_P1;HPM_P2
2022/04/07 00:01:00;;;;;;;11.65;4.18;;;;;;;;;;4951692;28;20030;-64
2022/04/07 00:03:25;;;;;;;8.48;3.88;;;;;;;;;;4951613;28;20139;-64
2022/04/07 00:05:51;;;;;;;12.52;4.32;;;;;;;;;;4951174;28;20460;-64
2022/04/07 00:08:16;;;;;;;9.10;4.57;;;;;;;;;;4951788;28;20580;-64
2022/04/07 00:10:42;;;;;;;9.82;5.13;;;;;;;;;;4952112;28;20421;-63
2022/04/07 00:13:07;;;;;;;10.30;4.20;;;;;;;;;;4951430;28;20449;-64
2022/04/07 00:15:32;;;;;;;8.05;4.22;;;;;;;;;;4951540;28;20365;-64
2022/04/07 00:17:58;;;;;;;11.55;4.10;;;;;;;;;;4952370;28;20437;-64
2022/04/07 00:20:24;;;;;;;6.38;3.47;;;;;;;;;;4952354;28;20441;-64
2022/04/07 00:22:50;;;;;;;9.27;4.38;;;;;;;;;;4953062;28;20453;-64
2022/04/07 00:25:16;;;;;;;9.25;4.28;;;;;;;;;;4951356;28;20337;-63
2022/04/07 00:27:41;;;;;;;8.60;4.32;;;;;;;;;;4950881;28;20357;-64
2022/04/07 00:30:09;;;;;;;11.77;5.10;;;;;;;;;;4950957;28;20444;-64
2022/04/07 00:32:40;;;;;;;11.30;4.75;;;;;;;;;;4950990;28;20412;-63
2022/04/07 00:35:06;;;;;;;7.65;4.55;;;;;;;;;;4951018;28;20563;-64
2022/04/07 00:37:31;;;;;;;9.68;4.35;;;;;;;;;;4951007;28;20496;-63
2022/04/07 00:39:58;;;;;;;10.82;4.65;;;;;;;;;;4950572;28;20096;-63
2022/04/07 00:42:23;;;;;;;13.52;4.65;;;;;;;;;;4951858;28;20409;-63
2022/04/07 00:44:48;;;;;;;8.80;4.43;;;;;;;;;;4951061;28;20349;-64
2022/04/07 00:47:14;;;;;;;9.70;4.55;;;;;;;;;;4951163;28;20030;-63
2022/04/07 00:49:39;;;;;;;8.32;4.57;;;;;;;;;;4950827;28;20125;-64
2022/04/07 00:52:06;;;;;;;12.70;4.88;;;;;;;;;;4951544;28;20468;-63
2022/04/07 00:54:32;;;;;;;8.05;3.78;;;;;;;;;;4933062;28;20516;-63
2022/04/07 00:56:59;;;;;;;9.50;4.40;;;;;;;;;;4951154;28;20487;-63
2022/04/07 00:59:24;;;;;;;8.10;4.30;;;;;;;;;;4950494;28;20341;-64
2022/04/07 01:01:50;;;;;;;10.43;4.53;;;;;;;;;;4963616;28;20379;-63
2022/04/07 01:04:16;;;;;;;11.23;4.97;;;;;;;;;;4950387;28;20052;-64
2022/04/07 01:06:42;;;;;;;8.77;4.07;;;;;;;;;;4950151;28;20415;-64
2022/04/07 01:09:12;;;;;;;7.20;4.00;;;;;;;;;;4950155;28;20485;-64
2022/04/07 01:11:40;;;;;;;9.70;4.13;;;;;;;;;;4948848;28;20445;-63
2022/04/07 01:14:05;;;;;;;10.35;4.30;;;;;;;;;;4949507;28;20461;-63
2022/04/07 01:16:31;;;;;;;11.02;4.30;;;;;;;;;;4951411;28;20371;-63
2022/04/07 01:18:59;;;;;;;8.07;3.88;;;;;;;;;;4950561;28;20461;-63
2022/04/07 01:21:25;;;;;;;8.02;4.38;;;;;;;;;;4950430;28;20349;-63
2022/04/07 01:24:10;;;;;;;8.40;4.35;;;;;;;;;;4950377;28;20507;-64
2022/04/07 01:26:40;;;;;;;9.55;4.20;;;;;;;;;;4950592;28;20052;-64
2022/04/07 01:29:07;;;;;;;11.07;4.88;;;;;;;;;;4950607;28;20435;-63
2022/04/07 01:31:32;;;;;;;10.70;4.70;;;;;;;;;;4950424;28;20303;-64
2022/04/07 01:33:59;;;;;;;9.05;4.13;;;;;;;;;;4951497;28;20373;-64
2022/04/07 01:36:26;;;;;;;9.57;4.60;;;;;;;;;;4949956;28;20396;-64
2022/04/07 01:38:52;;;;;;;12.82;5.25;;;;;;;;;;4949840;28;20453;-64
2022/04/07 01:41:19;;;;;;;7.40;4.20;;;;;;;;;;4949381;28;20527;-63
2022/04/07 01:43:45;;;;;;;10.60;4.47;;;;;;;;;;4932152;28;20381;-64
2022/04/07 01:46:12;;;;;;;8.98;4.07;;;;;;;;;;4949837;28;20449;-64
2022/04/07 01:48:38;;;;;;;9.45;4.55;;;;;;;;;;4950545;28;20421;-63
2022/04/07 01:51:03;;;;;;;12.95;4.82;;;;;;;;;;4949681;28;20084;-63
2022/04/07 01:53:28;;;;;;;12.70;4.90;;;;;;;;;;4932299;28;20033;-63
2022/04/07 01:55:54;;;;;;;9.48;4.45;;;;;;;;;;4932133;28;20504;-64
2022/04/07 01:58:19;;;;;;;7.60;4.30;;;;;;;;;;4950042;28;20629;-64
2022/04/07 02:00:45;;;;;;;8.57;3.92;;;;;;;;;;4950097;28;20451;-63
2022/04/07 02:03:10;;;;;;;9.65;4.78;;;;;;;;;;4949761;28;20026;-64
2022/04/07 02:05:36;;;;;;;8.95;4.35;;;;;;;;;;4949585;28;20480;-64
2022/04/07 02:08:02;;;;;;;9.30;4.35;;;;;;;;;;4949455;28;20365;-64
2022/04/07 02:10:28;;;;;;;7.55;3.95;;;;;;;;;;4950152;28;20294;-64
2022/04/07 02:12:54;;;;;;;8.65;4.72;;;;;;;;;;4949175;28;20406;-63
2022/04/07 02:15:19;;;;;;;9.93;4.30;;;;;;;;;;4949045;28;20413;-63
2022/04/07 02:17:44;;;;;;;8.43;3.67;;;;;;;;;;4951239;28;20342;-64
2022/04/07 02:20:10;;;;;;;7.25;3.58;;;;;;;;;;4949192;28;20484;-63
2022/04/07 02:22:35;;;;;;;13.60;3.97;;;;;;;;;;4950611;28;20513;-64
2022/04/07 02:25:01;;;;;;;11.40;4.78;;;;;;;;;;4949584;28;20464;-64
2022/04/07 02:27:35;;;;;;;8.73;3.83;;;;;;;;;;4952704;28;20341;-64
2022/04/07 02:30:00;;;;;;;8.13;4.15;;;;;;;;;;4953573;28;20052;-64
2022/04/07 02:32:25;;;;;;;8.65;4.32;;;;;;;;;;4953296;28;20422;-64
2022/04/07 02:34:52;;;;;;;9.13;4.10;;;;;;;;;;4953426;28;20453;-64
2022/04/07 02:37:17;;;;;;;12.73;4.45;;;;;;;;;;4953139;28;20061;-64
2022/04/07 02:39:42;;;;;;;9.68;4.20;;;;;;;;;;4952941;28;20536;-64
2022/04/07 02:42:08;;;;;;;9.77;4.13;;;;;;;;;;4953200;28;20318;-64
2022/04/07 02:44:33;;;;;;;11.35;4.90;;;;;;;;;;4953677;28;20492;-63
2022/04/07 02:46:58;;;;;;;8.35;4.05;;;;;;;;;;4953959;28;20414;-64
2022/04/07 02:49:24;;;;;;;8.48;4.40;;;;;;;;;;4952898;28;20397;-64
2022/04/07 02:51:50;;;;;;;7.57;4.20;;;;;;;;;;4953116;28;21139;-64
2022/04/07 02:54:15;;;;;;;8.73;4.28;;;;;;;;;;4952806;28;20468;-64
2022/04/07 02:56:41;;;;;;;11.23;4.07;;;;;;;;;;4953644;28;20302;-64
2022/04/07 02:59:06;;;;;;;9.57;4.75;;;;;;;;;;4953475;28;20258;-64
2022/04/07 03:01:31;;;;;;;10.18;4.30;;;;;;;;;;4952738;28;20349;-64
2022/04/07 03:03:57;;;;;;;11.55;4.78;;;;;;;;;;4953140;28;20033;-63
2022/04/07 03:06:22;;;;;;;9.02;4.20;;;;;;;;;;4952767;28;20429;-64
2022/04/07 03:08:48;;;;;;;10.20;4.72;;;;;;;;;;4952618;28;20396;-63
2022/04/07 03:11:13;;;;;;;8.73;4.25;;;;;;;;;;4952983;28;20322;-63
2022/04/07 03:13:39;;;;;;;10.27;4.95;;;;;;;;;;4952427;28;20512;-63
2022/04/07 03:16:08;;;;;;;11.80;4.53;;;;;;;;;;4952641;28;20502;-64
2022/04/07 03:18:34;;;;;;;10.55;4.32;;;;;;;;;;4954382;28;20034;-63
2022/04/07 03:20:59;;;;;;;8.48;4.65;;;;;;;;;;4952275;28;20084;-64
2022/04/07 03:23:25;;;;;;;10.13;4.55;;;;;;;;;;4952292;28;20100;-64
2022/04/07 03:25:50;;;;;;;12.38;4.85;;;;;;;;;;4952795;28;20129;-63
2022/04/07 03:28:16;;;;;;;8.45;4.10;;;;;;;;;;4953483;28;20034;-64
2022/04/07 03:30:41;;;;;;;10.52;3.63;;;;;;;;;;4952385;28;20346;-64
2022/04/07 03:33:07;;;;;;;9.07;4.70;;;;;;;;;;4954223;28;20314;-64
2022/04/07 03:35:38;;;;;;;9.70;4.53;;;;;;;;;;4952001;28;20322;-64
2022/04/07 03:38:06;;;;;;;9.32;4.20;;;;;;;;;;4951833;28;20480;-64
2022/04/07 03:40:34;;;;;;;7.63;4.05;;;;;;;;;;4951690;28;20368;-63
2022/04/07 03:43:00;;;;;;;7.50;3.88;;;;;;;;;;4952386;28;20337;-64
2022/04/07 03:45:25;;;;;;;9.45;4.05;;;;;;;;;;4952222;28;20097;-63
2022/04/07 03:47:50;;;;;;;12.98;5.20;;;;;;;;;;4952248;28;20504;-64
2022/04/07 03:50:16;;;;;;;8.27;4.30;;;;;;;;;;4952329;28;20330;-63
2022/04/07 03:52:41;;;;;;;11.05;4.40;;;;;;;;;;4952164;28;20414;-64
2022/04/07 03:55:07;;;;;;;7.00;4.07;;;;;;;;;;4952647;28;20026;-64
2022/04/07 03:57:32;;;;;;;10.30;4.45;;;;;;;;;;4952992;28;20501;-64
2022/04/07 03:59:58;;;;;;;7.88;4.07;;;;;;;;;;4947663;28;20045;-63
2022/04/07 04:02:23;;;;;;;8.93;3.90;;;;;;;;;;4971225;28;20420;-64
2022/04/07 04:04:49;;;;;;;10.18;4.68;;;;;;;;;;4970993;28;20466;-63
2022/04/07 04:07:14;;;;;;;10.27;4.28;;;;;;;;;;4970991;28;20436;-64
2022/04/07 04:09:39;;;;;;;11.02;5.47;;;;;;;;;;4971461;28;20417;-63
2022/04/07 04:12:05;;;;;;;10.98;4.25;;;;;;;;;;4970948;28;20412;-64
2022/04/07 04:14:31;;;;;;;9.00;4.95;;;;;;;;;;4971155;28;20317;-64
2022/04/07 04:16:56;;;;;;;11.13;4.53;;;;;;;;;;4970851;28;20026;-64
2022/04/07 04:19:21;;;;;;;9.75;4.65;;;;;;;;;;4970972;28;20345;-63
2022/04/07 04:21:47;;;;;;;8.27;3.53;;;;;;;;;;4970787;28;20439;-64
2022/04/07 04:24:12;;;;;;;10.88;5.18;;;;;;;;;;4971718;28;20341;-63
2022/04/07 04:26:38;;;;;;;10.88;4.90;;;;;;;;;;4972190;28;20341;-64
2022/04/07 04:29:03;;;;;;;9.35;4.25;;;;;;;;;;4971419;28;20372;-64
2022/04/07 04:31:29;;;;;;;8.65;4.68;;;;;;;;;;4970782;28;20448;-63
2022/04/07 04:33:55;;;;;;;10.50;4.40;;;;;;;;;;4970707;28;20345;-64
2022/04/07 04:36:20;;;;;;;10.98;4.50;;;;;;;;;;4970327;28;20427;-64
2022/04/07 04:38:46;;;;;;;9.70;4.55;;;;;;;;;;4970754;28;20427;-63
2022/04/07 04:41:12;;;;;;;10.43;4.55;;;;;;;;;;4970057;28;20440;-63
2022/04/07 04:43:37;;;;;;;9.13;4.88;;;;;;;;;;4971870;28;20504;-65
2022/04/07 04:46:03;;;;;;;10.00;4.32;;;;;;;;;;4971046;28;20025;-63
2022/04/07 04:48:28;;;;;;;10.55;4.93;;;;;;;;;;4969859;28;20436;-64
2022/04/07 04:50:55;;;;;;;9.05;4.32;;;;;;;;;;4971807;28;20483;-63
2022/04/07 04:53:22;;;;;;;10.48;4.32;;;;;;;;;;4970447;28;20373;-64
2022/04/07 04:55:47;;;;;;;12.77;4.93;;;;;;;;;;4970482;28;20099;-64
2022/04/07 04:58:14;;;;;;;12.43;5.20;;;;;;;;;;4971617;28;20406;-63
2022/04/07 05:00:40;;;;;;;10.02;4.63;;;;;;;;;;4971647;28;20480;-63
2022/04/07 05:03:05;;;;;;;11.27;5.22;;;;;;;;;;4970330;28;20449;-64
2022/04/07 05:05:31;;;;;;;10.10;4.90;;;;;;;;;;4970094;28;20452;-64
2022/04/07 05:07:56;;;;;;;10.20;5.30;;;;;;;;;;4970026;28;20432;-63
2022/04/07 05:10:22;;;;;;;9.55;4.60;;;;;;;;;;4970164;28;20108;-63
2022/04/07 05:12:47;;;;;;;10.43;5.38;;;;;;;;;;4969854;28;20059;-64
2022/04/07 05:15:12;;;;;;;12.70;5.15;;;;;;;;;;4969848;28;20512;-64
2022/04/07 05:17:38;;;;;;;11.75;5.05;;;;;;;;;;4969893;28;20504;-64
2022/04/07 05:20:03;;;;;;;13.57;5.47;;;;;;;;;;4971712;28;20385;-64
2022/04/07 05:22:29;;;;;;;8.30;4.05;;;;;;;;;;4969461;28;20396;-63
2022/04/07 05:24:54;;;;;;;9.00;4.57;;;;;;;;;;4969885;28;20325;-63
2022/04/07 05:27:19;;;;;;;11.52;4.85;;;;;;;;;;4969653;28;20368;-64
2022/04/07 05:29:45;;;;;;;9.82;5.07;;;;;;;;;;4970069;28;20033;-64
2022/04/07 05:32:10;;;;;;;10.13;4.35;;;;;;;;;;4969665;28;20346;-63
2022/04/07 05:34:36;;;;;;;10.50;4.78;;;;;;;;;;4969773;28;20425;-64
2022/04/07 05:37:01;;;;;;;11.20;5.07;;;;;;;;;;4969914;28;20440;-64
2022/04/07 05:39:26;;;;;;;10.25;4.88;;;;;;;;;;4969665;28;20452;-64
2022/04/07 05:41:52;;;;;;;10.55;5.05;;;;;;;;;;4969396;28;20322;-64
2022/04/07 05:44:17;;;;;;;11.45;5.25;;;;;;;;;;4969448;28;20492;-64
2022/04/07 05:46:42;;;;;;;12.20;5.18;;;;;;;;;;4969476;28;20106;-64
2022/04/07 05:49:10;;;;;;;10.02;4.72;;;;;;;;;;4969214;28;20364;-63
2022/04/07 05:51:36;;;;;;;11.18;5.50;;;;;;;;;;4969132;28;20056;-64
2022/04/07 05:54:01;;;;;;;11.45;4.78;;;;;;;;;;4969250;28;20467;-64
2022/04/07 05:56:26;;;;;;;9.02;4.95;;;;;;;;;;4969343;28;20383;-63
2022/04/07 05:58:52;;;;;;;7.68;4.07;;;;;;;;;;4969486;28;20113;-64
2022/04/07 06:01:17;;;;;;;10.55;4.90;;;;;;;;;;4969741;28;20373;-64
2022/04/07 06:03:43;;;;;;;7.50;5.07;;;;;;;;;;4968809;28;20352;-64
2022/04/07 06:06:08;;;;;;;10.82;4.90;;;;;;;;;;4969621;28;20452;-64
2022/04/07 06:08:34;;;;;;;12.20;5.50;;;;;;;;;;4969083;28;20372;-64
2022/04/07 06:10:59;;;;;;;12.43;5.95;;;;;;;;;;4969696;28;20436;-63
2022/04/07 06:13:24;;;;;;;11.02;5.38;;;;;;;;;;4969813;28;20034;-63
2022/04/07 06:15:50;;;;;;;12.50;5.20;;;;;;;;;;4968597;28;20492;-63
2022/04/07 06:18:16;;;;;;;12.13;4.88;;;;;;;;;;4969299;28;20443;-64
2022/04/07 06:20:41;;;;;;;11.05;4.95;;;;;;;;;;4969945;28;20478;-64
2022/04/07 06:23:07;;;;;;;8.52;4.82;;;;;;;;;;4968772;28;20480;-64
2022/04/07 06:25:32;;;;;;;11.05;5.00;;;;;;;;;;4968811;28;20452;-63
2022/04/07 06:27:59;;;;;;;9.10;5.28;;;;;;;;;;4969008;28;20448;-64
2022/04/07 06:30:25;;;;;;;9.32;4.45;;;;;;;;;;4969678;28;20379;-64
2022/04/07 06:32:52;;;;;;;9.55;5.07;;;;;;;;;;4969174;28;20056;-64
2022/04/07 06:35:17;;;;;;;8.02;4.35;;;;;;;;;;4969249;28;20029;-64
2022/04/07 06:37:49;;;;;;;7.93;4.22;;;;;;;;;;4969523;28;20453;-63
2022/04/07 06:40:18;;;;;;;9.48;4.72;;;;;;;;;;4968898;28;20332;-65
2022/04/07 06:42:44;;;;;;;13.30;5.43;;;;;;;;;;4969578;28;20491;-64
2022/04/07 06:45:09;;;;;;;9.27;4.68;;;;;;;;;;4969697;28;20464;-64
2022/04/07 06:47:40;;;;;;;11.10;5.35;;;;;;;;;;4969248;28;20476;-64
2022/04/07 06:50:08;;;;;;;10.43;4.70;;;;;;;;;;4968678;28;20464;-64
2022/04/07 06:52:33;;;;;;;11.82;5.25;;;;;;;;;;4968589;28;20333;-64
2022/04/07 06:54:59;;;;;;;9.80;4.93;;;;;;;;;;4968987;28;20386;-64
2022/04/07 06:57:24;;;;;;;10.85;4.53;;;;;;;;;;4968486;28;20484;-64
2022/04/07 06:59:49;;;;;;;11.48;4.65;;;;;;;;;;4968671;28;20030;-64
2022/04/07 07:02:15;;;;;;;9.73;4.80;;;;;;;;;;4968706;28;20484;-64
2022/04/07 07:04:40;;;;;;;10.02;4.88;;;;;;;;;;4968572;28;20501;-64
2022/04/07 07:07:05;;;;;;;8.88;4.65;;;;;;;;;;4969350;28;20037;-63
2022/04/07 07:09:31;;;;;;;9.65;5.10;;;;;;;;;;4968451;28;20026;-64
2022/04/07 07:11:56;;;;;;;9.52;5.03;;;;;;;;;;4969907;28;20479;-64
2022/04/07 07:14:21;;;;;;;11.25;3.97;;;;;;;;;;4972054;28;20325;-64
2022/04/07 07:16:48;;;;;;;12.48;4.10;;;;;;;;;;4972992;28;20435;-64
2022/04/07 07:19:15;;;;;;;8.13;3.92;;;;;;;;;;4972234;28;20471;-63
2022/04/07 07:21:40;;;;;;;10.90;4.30;;;;;;;;;;4973550;28;20363;-64
2022/04/07 07:24:06;;;;;;;8.95;4.28;;;;;;;;;;4972227;28;20314;-63
2022/04/07 07:26:31;;;;;;;7.43;3.95;;;;;;;;;;4971807;28;20372;-63
2022/04/07 07:28:56;;;;;;;8.38;3.85;;;;;;;;;;4971742;28;20458;-63
2022/04/07 07:31:22;;;;;;;9.63;4.03;;;;;;;;;;4972254;28;20424;-63
2022/04/07 07:33:47;;;;;;;10.27;4.22;;;;;;;;;;4971411;28;20051;-64
2022/04/07 07:36:12;;;;;;;8.40;4.38;;;;;;;;;;4971892;28;20475;-63
2022/04/07 07:38:38;;;;;;;6.68;3.75;;;;;;;;;;4972514;28;20421;-64
2022/04/07 07:41:03;;;;;;;9.75;4.00;;;;;;;;;;4970971;28;20103;-63
2022/04/07 07:43:28;;;;;;;8.38;3.95;;;;;;;;;;4971848;28;20536;-63
2022/04/07 07:45:54;;;;;;;7.55;3.58;;;;;;;;;;4971562;28;20517;-63
2022/04/07 07:48:29;;;;;;;6.03;3.40;;;;;;;;;;4971890;28;20443;-64
2022/04/07 07:50:58;;;;;;;9.52;3.30;;;;;;;;;;4971851;28;20464;-63
2022/04/07 07:53:23;;;;;;;6.82;3.42;;;;;;;;;;4971245;28;20532;-63
2022/04/07 07:55:50;;;;;;;7.72;3.85;;;;;;;;;;4971307;28;20454;-64
2022/04/07 07:58:16;;;;;;;7.65;4.03;;;;;;;;;;4971468;28;20438;-64
2022/04/07 08:00:41;;;;;;;7.90;3.97;;;;;;;;;;4971656;28;20325;-63
2022/04/07 08:03:07;;;;;;;9.98;3.55;;;;;;;;;;4971483;28;20380;-63
2022/04/07 08:05:32;;;;;;;4.93;3.05;;;;;;;;;;4972117;28;20543;-63
2022/04/07 08:07:58;;;;;;;7.85;4.47;;;;;;;;;;4972655;28;20108;-64
2022/04/07 08:10:23;;;;;;;8.95;3.53;;;;;;;;;;4970817;28;20391;-63
2022/04/07 08:12:48;;;;;;;6.55;3.55;;;;;;;;;;4971625;28;20021;-63
2022/04/07 08:15:14;;;;;;;9.82;3.35;;;;;;;;;;4970986;28;20445;-63
2022/04/07 08:17:39;;;;;;;5.80;3.42;;;;;;;;;;4970973;28;20475;-64
2022/04/07 08:20:07;;;;;;;5.93;2.95;;;;;;;;;;4970953;28;20425;-64
2022/04/07 08:22:33;;;;;;;7.82;3.35;;;;;;;;;;4970815;28;20440;-63
2022/04/07 08:24:58;;;;;;;7.70;3.08;;;;;;;;;;4971832;28;20471;-63
2022/04/07 08:27:24;;;;;;;8.27;3.08;;;;;;;;;;4970915;28;20411;-64
2022/04/07 08:29:50;;;;;;;7.18;3.05;;;;;;;;;;4970846;28;20452;-63
2022/04/07 08:32:15;;;;;;;7.88;3.05;;;;;;;;;;4970959;28;20133;-63
2022/04/07 08:34:40;;;;;;;6.65;3.10;;;;;;;;;;4972052;28;20425;-63
2022/04/07 08:37:06;;;;;;;10.25;3.42;;;;;;;;;;4969466;28;20500;-64
2022/04/07 08:39:31;;;;;;;8.88;3.45;;;;;;;;;;4970133;28;20491;-63
2022/04/07 08:41:57;;;;;;;7.68;3.03;;;;;;;;;;4970315;28;20463;-64
2022/04/07 08:44:24;;;;;;;6.18;2.75;;;;;;;;;;4953027;28;20508;-63
2022/04/07 08:46:53;;;;;;;6.38;3.33;;;;;;;;;;4970301;28;20026;-63
2022/04/07 08:49:23;;;;;;;8.23;3.25;;;;;;;;;;4970553;28;20417;-64
2022/04/07 08:51:52;;;;;;;6.25;2.92;;;;;;;;;;4970487;28;20026;-63
2022/04/07 08:54:19;;;;;;;4.72;3.15;;;;;;;;;;4970569;28;20423;-63
2022/04/07 08:56:45;;;;;;;7.38;3.20;;;;;;;;;;4970515;28;20462;-63
2022/04/07 08:59:10;;;;;;;4.65;2.63;;;;;;;;;;4970523;28;20338;-64
2022/04/07 09:01:35;;;;;;;5.72;2.85;;;;;;;;;;4969893;28;20432;-64
2022/04/07 09:04:01;;;;;;;6.00;2.53;;;;;;;;;;4970480;28;20421;-63
2022/04/07 09:06:28;;;;;;;6.65;3.40;;;;;;;;;;4969988;28;20399;-63
2022/04/07 09:08:53;;;;;;;3.90;2.67;;;;;;;;;;4970012;28;20026;-63
2022/04/07 09:11:19;;;;;;;5.25;2.85;;;;;;;;;;4969814;28;20435;-64
2022/04/07 09:13:45;;;;;;;5.68;2.97;;;;;;;;;;4969730;28;20445;-63
2022/04/07 09:16:13;;;;;;;6.20;2.90;;;;;;;;;;4970470;28;20437;-64
2022/04/07 09:18:43;;;;;;;6.28;2.67;;;;;;;;;;4969860;28;20437;-63
2022/04/07 09:21:31;;;;;;;5.20;2.53;;;;;;;;;;4969611;28;20042;-63
2022/04/07 09:24:00;;;;;;;3.47;1.98;;;;;;;;;;4969913;28;20354;-63
2022/04/07 09:26:27;;;;;;;6.65;2.40;;;;;;;;;;4969702;28;20352;-63
2022/04/07 09:28:56;;;;;;;7.40;2.67;;;;;;;;;;4970176;28;20433;-63
2022/04/07 09:31:22;;;;;;;4.80;2.45;;;;;;;;;;4970014;28;20344;-63
2022/04/07 09:33:55;;;;;;;6.57;2.78;;;;;;;;;;4969703;28;20459;-64
2022/04/07 09:36:21;;;;;;;7.20;2.85;;;;;;;;;;4969323;28;20443;-63
2022/04/07 09:38:58;;;;;;;5.82;2.42;;;;;;;;;;4969506;28;20029;-64
2022/04/07 09:41:28;;;;;;;3.78;2.20;;;;;;;;;;4954721;28;20438;-63
2022/04/07 09:43:58;;;;;;;5.90;2.17;;;;;;;;;;4950529;28;20343;-63
2022/04/07 09:46:24;;;;;;;4.28;2.10;;;;;;;;;;4950066;28;20444;-63
2022/04/07 09:49:03;;;;;;;4.78;2.25;;;;;;;;;;4950112;28;20030;-63
2022/04/07 09:51:30;;;;;;;6.20;2.35;;;;;;;;;;4949673;28;20445;-64
2022/04/07 09:53:56;;;;;;;4.63;2.10;;;;;;;;;;4950803;28;20081;-63
2022/04/07 09:56:27;;;;;;;5.15;1.73;;;;;;;;;;4951211;28;20491;-64
2022/04/07 09:58:53;;;;;;;6.55;2.15;;;;;;;;;;4949899;28;20544;-64
2022/04/07 10:01:19;;;;;;;4.28;2.15;;;;;;;;;;4949548;28;20357;-64
2022/04/07 10:03:44;;;;;;;3.63;2.20;;;;;;;;;;4951211;28;20373;-63
2022/04/07 10:06:11;;;;;;;5.30;2.20;;;;;;;;;;4932159;28;20429;-64
2022/04/07 10:08:37;;;;;;;4.80;1.83;;;;;;;;;;4932281;28;20408;-63
2022/04/07 10:11:03;;;;;;;4.80;2.30;;;;;;;;;;4951485;28;20410;-63
2022/04/07 10:13:30;;;;;;;2.70;1.73;;;;;;;;;;4943301;28;20452;-64
2022/04/07 10:15:56;;;;;;;4.95;1.63;;;;;;;;;;4949577;28;20383;-64
2022/04/07 10:18:36;;;;;;;5.28;1.83;;;;;;;;;;4949457;28;20460;-63
2022/04/07 10:21:02;;;;;;;3.03;1.80;;;;;;;;;;4949608;28;20397;-63
2022/04/07 10:23:37;;;;;;;5.63;1.70;;;;;;;;;;4948358;28;20305;-64
2022/04/07 10:26:03;;;;;;;4.90;2.10;;;;;;;;;;4949642;28;20446;-63
2022/04/07 10:28:28;;;;;;;2.33;1.30;;;;;;;;;;4932334;28;20377;-63
2022/04/07 10:30:54;;;;;;;3.65;1.75;;;;;;;;;;4949682;28;20177;-64
2022/04/07 10:33:44;;;;;;;5.32;1.65;;;;;;;;;;4949708;28;20452;-64
2022/04/07 10:36:15;;;;;;;4.75;1.83;;;;;;;;;;4933087;28;20393;-63
2022/04/07 10:38:44;;;;;;;2.88;1.70;;;;;;;;;;4949445;28;20627;-64
2022/04/07 10:41:10;;;;;;;7.47;1.48;;;;;;;;;;4961550;28;20452;-63
2022/04/07 10:43:39;;;;;;;3.72;1.50;;;;;;;;;;4968887;28;20498;-64
2022/04/07 10:46:24;;;;;;;4.65;2.00;;;;;;;;;;4968750;28;20486;-64
2022/04/07 10:48:59;;;;;;;2.90;1.38;;;;;;;;;;4972518;28;20044;-63
2022/04/07 10:51:43;;;;;;;2.30;1.17;;;;;;;;;;4972638;28;20432;-64
2022/04/07 10:54:09;;;;;;;9.07;1.40;;;;;;;;;;4973577;28;20329;-64
2022/04/07 10:56:35;;;;;;;2.47;1.05;;;;;;;;;;4972458;28;20355;-63
2022/04/07 10:59:22;;;;;;;2.45;1.40;;;;;;;;;;4972721;28;20483;-64
2022/04/07 11:02:10;;;;;;;3.30;1.50;;;;;;;;;;4973248;28;20461;-64
2022/04/07 11:04:39;;;;;;;4.70;1.95;;;;;;;;;;4972442;28;20387;-64
2022/04/07 11:07:04;;;;;;;5.05;1.02;;;;;;;;;;4972217;28;20440;-64
2022/04/07 11:10:00;;;;;;;4.10;1.40;;;;;;;;;;4972459;28;20511;-64
2022/04/07 11:12:39;;;;;;;3.75;1.67;;;;;;;;;;4970470;28;20403;-63
2022/04/07 11:15:04;;;;;;;5.85;1.55;;;;;;;;;;4972414;28;20029;-64
2022/04/07 11:17:33;;;;;;;3.45;1.58;;;;;;;;;;4973038;28;20429;-64
2022/04/07 11:20:15;;;;;;;1.90;0.93;;;;;;;;;;4972236;28;20587;-64
2022/04/07 11:22:53;;;;;;;2.45;1.23;;;;;;;;;;4972378;28;20437;-63
2022/04/07 11:25:37;;;;;;;3.95;1.75;;;;;;;;;;4971734;28;20314;-64
2022/04/07 11:28:04;;;;;;;6.13;1.33;;;;;;;;;;4972245;28;20468;-64
2022/04/07 11:30:41;;;;;;;3.85;1.25;;;;;;;;;;4971578;28;20542;-64
2022/04/07 11:33:18;;;;;;;7.75;1.80;;;;;;;;;;4972423;28;20049;-64
2022/04/07 11:35:44;;;;;;;3.35;1.30;;;;;;;;;;4972058;28;20445;-63
2022/04/07 11:38:10;;;;;;;8.43;1.95;;;;;;;;;;4972412;28;20483;-63
2022/04/07 11:40:35;;;;;;;3.42;1.42;;;;;;;;;;4954000;28;20384;-64
2022/04/07 11:43:02;;;;;;;2.00;1.33;;;;;;;;;;4972168;28;20360;-64
2022/04/07 11:45:31;;;;;;;2.17;1.15;;;;;;;;;;4972546;28;20448;-64
2022/04/07 11:47:56;;;;;;;;;;;;;;;;;;4973691;28;20360;-64
2022/04/07 11:50:21;;;;;;;3.88;1.23;;;;;;;;;;4971495;28;19912;-64
2022/04/07 11:52:49;;;;;;;3.33;1.58;;;;;;;;;;4971632;28;20065;-64
2022/04/07 11:55:17;;;;;;;4.97;1.45;;;;;;;;;;4971696;28;20467;-64
2022/04/07 11:57:42;;;;;;;4.13;1.52;;;;;;;;;;4971080;28;20449;-64
2022/04/07 12:00:10;;;;;;;4.50;1.30;;;;;;;;;;4971472;28;20424;-65
2022/04/07 12:02:35;;;;;;;1.95;1.25;;;;;;;;;;4971510;28;20029;-64
2022/04/07 12:05:02;;;;;;;4.82;1.58;;;;;;;;;;4971034;28;20499;-64
2022/04/07 12:07:28;;;;;;;3.85;1.23;;;;;;;;;;4971550;28;20468;-64
2022/04/07 12:09:56;;;;;;;7.15;1.42;;;;;;;;;;4971113;28;20547;-64
2022/04/07 12:12:23;;;;;;;4.80;1.48;;;;;;;;;;4971202;28;20052;-64
2022/04/07 12:14:48;;;;;;;4.45;1.33;;;;;;;;;;4971142;28;20582;-64
2022/04/07 12:17:13;;;;;;;3.65;1.23;;;;;;;;;;4971131;28;20384;-64
2022/04/07 12:19:43;;;;;;;7.30;1.65;;;;;;;;;;4971712;28;20425;-64
2022/04/07 12:22:09;;;;;;;4.03;1.30;;;;;;;;;;4971297;28;20397;-64
2022/04/07 12:24:34;;;;;;;2.15;1.00;;;;;;;;;;4970998;28;20393;-63
2022/04/07 12:27:00;;;;;;;3.50;1.00;;;;;;;;;;4971335;28;20399;-63
2022/04/07 12:29:30;;;;;;;5.50;2.38;;;;;;;;;;4970495;28;20391;-64
2022/04/07 12:32:06;;;;;;;4.25;1.20;;;;;;;;;;4971310;28;20452;-64
2022/04/07 12:34:33;;;;;;;8.05;1.00;;;;;;;;;;4970820;28;20413;-64
2022/04/07 12:36:58;;;;;;;1.52;1.05;;;;;;;;;;4971604;28;20363;-63
2022/04/07 12:39:28;;;;;;;5.10;1.10;;;;;;;;;;4970744;28;20376;-63
2022/04/07 12:42:03;;;;;;;4.40;1.15;;;;;;;;;;4970313;28;20416;-64
2022/04/07 12:44:31;;;;;;;13.48;1.40;;;;;;;;;;4971109;28;20412;-64
2022/04/07 12:46:57;;;;;;;5.10;1.35;;;;;;;;;;4970325;28;20546;-64
2022/04/07 12:49:33;;;;;;;5.53;1.77;;;;;;;;;;4971013;28;20344;-64
2022/04/07 12:52:13;;;;;;;4.35;1.60;;;;;;;;;;4970228;28;20044;-64
2022/04/07 12:55:01;;;;;;;4.53;2.50;;;;;;;;;;4970354;28;20453;-64
2022/04/07 12:57:34;;;;;;;4.15;1.42;;;;;;;;;;4970830;28;20633;-63
2022/04/07 13:00:02;;;;;;;4.93;1.45;;;;;;;;;;4970393;28;20380;-63
2022/04/07 13:02:41;;;;;;;5.30;1.30;;;;;;;;;;4970328;28;20429;-63
2022/04/07 13:05:07;;;;;;;4.00;1.50;;;;;;;;;;4952577;28;20460;-63
2022/04/07 13:07:32;;;;;;;5.18;1.42;;;;;;;;;;4970920;28;20332;-63
2022/04/07 13:09:58;;;;;;;5.05;1.52;;;;;;;;;;4969615;28;20364;-64
2022/04/07 13:12:23;;;;;;;8.40;1.38;;;;;;;;;;4970460;28;20420;-64
2022/04/07 13:14:48;;;;;;;8.57;1.88;;;;;;;;;;4968494;28;20433;-64
2022/04/07 13:17:14;;;;;;;7.32;1.20;;;;;;;;;;4969583;28;20030;-64
2022/04/07 13:19:39;;;;;;;5.78;1.90;;;;;;;;;;4970181;28;20539;-64
2022/04/07 13:22:05;;;;;;;8.70;1.63;;;;;;;;;;4970067;28;20365;-64
2022/04/07 13:24:31;;;;;;;4.35;1.80;;;;;;;;;;4971701;28;20021;-63
2022/04/07 13:26:57;;;;;;;5.90;1.98;;;;;;;;;;4969456;28;20437;-64
2022/04/07 13:29:23;;;;;;;6.38;1.60;;;;;;;;;;4970307;28;20443;-64
2022/04/07 13:31:49;;;;;;;4.03;2.20;;;;;;;;;;4970534;28;20471;-64
2022/04/07 13:34:14;;;;;;;5.05;1.50;;;;;;;;;;4969592;28;20433;-66
2022/04/07 13:36:40;;;;;;;2.67;1.50;;;;;;;;;;4970327;28;20397;-63
2022/04/07 13:39:06;;;;;;;6.72;1.98;;;;;;;;;;4969636;28;20494;-63
2022/04/07 13:41:31;;;;;;;10.55;1.92;;;;;;;;;;4969088;28;20451;-64
2022/04/07 13:43:57;;;;;;;3.92;1.80;;;;;;;;;;4969627;28;20346;-64
2022/04/07 13:46:22;;;;;;;4.22;2.45;;;;;;;;;;4969511;28;20033;-64
2022/04/07 13:48:49;;;;;;;5.28;1.90;;;;;;;;;;4969630;28;20321;-63
2022/04/07 13:51:15;;;;;;;7.57;2.00;;;;;;;;;;4969759;28;20088;-64
2022/04/07 13:53:41;;;;;;;5.03;2.30;;;;;;;;;;4970177;28;20504;-63
2022/04/07 13:56:06;;;;;;;4.32;1.70;;;;;;;;;;4969802;28;20479;-64
2022/04/07 13:58:32;;;;;;;4.88;1.58;;;;;;;;;;4952449;28;20495;-64
2022/04/07 14:00:57;;;;;;;2.47;1.35;;;;;;;;;;4969996;28;20397;-63
2022/04/07 14:03:22;;;;;;;3.28;2.05;;;;;;;;;;4969793;28;20412;-64
2022/04/07 14:05:48;;;;;;;3.53;1.83;;;;;;;;;;4969107;28;20464;-64
2022/04/07 14:08:13;;;;;;;4.72;1.67;;;;;;;;;;4970453;28;20492;-64
2022/04/07 14:10:41;;;;;;;5.75;2.30;;;;;;;;;;4969470;28;20349;-64
2022/04/07 14:13:06;;;;;;;3.60;1.83;;;;;;;;;;4968771;28;20445;-65
2022/04/07 14:15:32;;;;;;;4.97;1.92;;;;;;;;;;4969386;28;20506;-64
2022/04/07 14:17:58;;;;;;;5.97;2.53;;;;;;;;;;4969431;28;20341;-63
2022/04/07 14:20:24;;;;;;;5.60;2.22;;;;;;;;;;4969085;28;20360;-64
2022/04/07 14:22:50;;;;;;;8.40;2.58;;;;;;;;;;4975131;28;20329;-63
2022/04/07 14:25:16;;;;;;;6.15;1.85;;;;;;;;;;4975527;28;20029;-64
2022/04/07 14:27:42;;;;;;;5.32;1.95;;;;;;;;;;4975501;28;20388;-64
2022/04/07 14:30:08;;;;;;;5.18;1.60;;;;;;;;;;4975665;28;20049;-64
2022/04/07 14:32:34;;;;;;;3.72;2.13;;;;;;;;;;4975617;28;20052;-64
2022/04/07 14:34:59;;;;;;;5.88;2.15;;;;;;;;;;4975439;28;20025;-63
2022/04/07 14:37:24;;;;;;;6.22;1.95;;;;;;;;;;4975865;28;20488;-64
2022/04/07 14:39:50;;;;;;;5.55;2.40;;;;;;;;;;4975091;28;20357;-64